createdAt,value
2018-06-24T00:02:07.294Z,99.80
2018-06-24T00:04:35.910Z,99.90
2018-06-24T00:07:04.566Z,99.90
2018-06-24T00:09:33.134Z,99.90
2018-06-24T00:12:01.686Z,99.90
2018-06-24T00:14:30.262Z,99.90
2018-06-24T00:16:58.887Z,99.90
2018-06-24T00:19:27.540Z,99.90
2018-06-24T00:21:56.219Z,99.90
2018-06-24T00:24:24.812Z,99.90
2018-06-24T00:26:53.410Z,99.90
2018-06-24T00:31:51.665Z,99.90
2018-06-24T00:34:20.242Z,99.90
2018-06-24T00:36:48.837Z,99.90
2018-06-24T00:39:17.513Z,99.90
2018-06-24T00:41:46.047Z,99.90
2018-06-24T00:44:14.706Z,99.90
2018-06-24T00:46:43.286Z,99.90
2018-06-24T00:49:11.880Z,99.90
2018-06-24T00:51:40.428Z,99.90
2018-06-24T00:54:09.081Z,99.90
2018-06-24T00:56:37.598Z,99.90
2018-06-24T00:59:07.391Z,99.90
2018-06-24T01:01:35.970Z,99.90
2018-06-24T01:04:04.507Z,99.90
2018-06-24T01:06:33.101Z,99.90
2018-06-24T01:09:01.728Z,99.90
2018-06-24T01:11:30.431Z,99.90
2018-06-24T01:13:59.084Z,99.90
2018-06-24T01:16:27.697Z,99.90
2018-06-24T01:18:56.281Z,99.90
2018-06-24T01:21:24.998Z,99.90
2018-06-24T01:23:53.592Z,99.90
2018-06-24T01:26:22.228Z,99.90
2018-06-24T01:28:50.903Z,99.90
2018-06-24T01:31:19.562Z,99.90
2018-06-24T01:33:48.186Z,99.90
2018-06-24T01:36:16.823Z,99.90
2018-06-24T01:38:45.380Z,99.90
2018-06-24T01:41:14.046Z,99.90
2018-06-24T01:43:42.678Z,99.90
2018-06-24T01:46:11.263Z,99.90
2018-06-24T01:51:08.088Z,99.90
2018-06-24T01:53:36.681Z,99.90
2018-06-24T01:56:05.342Z,99.90
2018-06-24T01:58:34.033Z,99.90
2018-06-24T02:01:02.656Z,99.90
2018-06-24T02:03:31.247Z,99.90
2018-06-24T02:05:59.838Z,99.90
2018-06-24T02:08:28.425Z,99.90
2018-06-24T02:10:56.980Z,99.90
2018-06-24T02:13:25.642Z,99.90
2018-06-24T02:15:54.230Z,99.90
2018-06-24T02:18:22.741Z,99.90
2018-06-24T02:23:20.736Z,99.90
2018-06-24T02:25:49.363Z,99.90
2018-06-24T02:28:17.956Z,99.90
2018-06-24T02:30:46.639Z,99.90
2018-06-24T02:33:15.211Z,99.90
2018-06-24T02:35:43.831Z,99.90
2018-06-24T02:38:12.427Z,99.90
2018-06-24T02:40:41.249Z,99.90
2018-06-24T02:43:09.828Z,99.90
2018-06-24T02:45:38.485Z,99.90
2018-06-24T02:48:07.156Z,99.90
2018-06-24T02:50:35.790Z,99.90
2018-06-24T02:53:04.395Z,99.90
2018-06-24T02:55:32.982Z,99.90
2018-06-24T02:58:01.579Z,99.90
2018-06-24T03:00:30.158Z,99.90
2018-06-24T03:02:58.775Z,99.90
2018-06-24T03:05:27.470Z,99.90
2018-06-24T03:07:56.138Z,99.90
2018-06-24T03:10:24.783Z,99.90
2018-06-24T03:12:53.445Z,99.90
2018-06-24T03:15:21.994Z,99.90
2018-06-24T03:17:50.696Z,99.90
2018-06-24T03:20:19.292Z,99.90
2018-06-24T03:22:47.891Z,99.90
2018-06-24T03:25:16.541Z,99.90
2018-06-24T03:27:45.198Z,99.90
2018-06-24T03:30:13.796Z,99.90
2018-06-24T03:32:42.408Z,99.90
2018-06-24T03:35:11.024Z,99.90
2018-06-24T03:37:39.766Z,99.90
2018-06-24T03:40:08.271Z,99.90
2018-06-24T03:42:36.840Z,99.90
2018-06-24T03:45:06.050Z,99.90
2018-06-24T03:47:34.683Z,99.90
2018-06-24T03:50:03.389Z,99.90
2018-06-24T03:52:32.049Z,99.90
2018-06-24T03:55:00.669Z,99.90
2018-06-24T03:57:29.304Z,99.90
2018-06-24T03:59:57.953Z,99.90
2018-06-24T04:02:26.518Z,99.90
2018-06-24T04:04:55.065Z,99.90
2018-06-24T04:07:23.645Z,99.90
2018-06-24T04:09:52.199Z,99.90
2018-06-24T04:12:20.839Z,99.90
2018-06-24T04:14:49.476Z,99.90
2018-06-24T04:17:18.223Z,99.90
2018-06-24T04:19:46.902Z,99.90
2018-06-24T04:22:15.709Z,99.90
2018-06-24T04:24:44.277Z,99.90
2018-06-24T04:27:12.931Z,99.90
2018-06-24T04:29:41.580Z,99.90
2018-06-24T04:32:10.201Z,99.50
2018-06-24T04:34:38.910Z,99.20
2018-06-24T04:37:07.660Z,98.80
2018-06-24T04:39:36.295Z,98.50
2018-06-24T04:42:04.949Z,98.40
2018-06-24T04:44:33.629Z,98.00
2018-06-24T04:47:02.324Z,97.60
2018-06-24T04:49:30.970Z,97.30
2018-06-24T04:51:59.533Z,96.70
2018-06-24T04:54:28.510Z,96.90
2018-06-24T04:56:57.138Z,96.40
2018-06-24T04:59:25.807Z,96.20
2018-06-24T05:01:54.343Z,96.30
2018-06-24T05:04:22.955Z,96.30
2018-06-24T05:06:51.574Z,95.90
2018-06-24T05:09:20.186Z,95.60
2018-06-24T05:11:48.789Z,95.50
2018-06-24T05:14:17.391Z,95.40
2018-06-24T05:16:45.971Z,95.30
2018-06-24T05:19:14.614Z,95.10
2018-06-24T05:21:43.226Z,95.10
2018-06-24T05:24:11.859Z,94.80
2018-06-24T05:26:40.469Z,94.60
2018-06-24T05:29:08.992Z,94.60
2018-06-24T05:31:37.567Z,94.60
2018-06-24T05:36:34.588Z,94.10
2018-06-24T05:39:04.895Z,93.80
2018-06-24T05:41:33.466Z,93.30
2018-06-24T05:44:02.071Z,93.40
2018-06-24T05:46:30.698Z,93.40
2018-06-24T05:49:00.391Z,93.40
2018-06-24T05:51:29.010Z,93.30
2018-06-24T05:53:57.774Z,93.40
2018-06-24T05:56:26.505Z,92.90
2018-06-24T05:58:55.185Z,92.80
2018-06-24T06:01:23.767Z,92.70
2018-06-24T06:03:52.457Z,92.50
2018-06-24T06:06:21.094Z,91.90
2018-06-24T06:08:49.657Z,91.50
2018-06-24T06:11:18.371Z,91.10
2018-06-24T06:13:46.944Z,90.70
2018-06-24T06:16:15.646Z,90.00
2018-06-24T06:18:44.165Z,90.00
2018-06-24T06:21:12.818Z,90.00
2018-06-24T06:23:41.422Z,90.20
2018-06-24T06:28:38.331Z,90.60
2018-06-24T06:31:06.975Z,90.50
2018-06-24T06:33:35.557Z,90.80
2018-06-24T06:36:04.263Z,90.90
2018-06-24T06:38:32.917Z,90.80
2018-06-24T06:43:29.684Z,90.40
2018-06-24T06:45:58.267Z,90.40
2018-06-24T06:50:56.253Z,89.40
2018-06-24T06:53:24.847Z,89.20
2018-06-24T06:55:53.448Z,89.80
2018-06-24T06:58:22.124Z,88.30
2018-06-24T07:00:50.669Z,87.80
2018-06-24T07:03:19.351Z,87.30
2018-06-24T07:05:47.939Z,86.60
2018-06-24T07:08:16.640Z,85.70
2018-06-24T07:10:45.352Z,85.50
2018-06-24T07:13:13.947Z,85.50
2018-06-24T07:15:42.549Z,84.50
2018-06-24T07:18:11.219Z,84.00
2018-06-24T07:20:39.921Z,83.90
2018-06-24T07:23:08.601Z,82.50
2018-06-24T07:25:37.278Z,81.30
2018-06-24T07:28:06.405Z,80.10
2018-06-24T07:30:35.038Z,79.30
2018-06-24T07:33:03.689Z,79.20
2018-06-24T07:35:33.434Z,77.80
2018-06-24T07:38:02.055Z,78.00
2018-06-24T07:40:30.617Z,77.20
2018-06-24T07:42:59.300Z,78.10
2018-06-24T07:45:27.914Z,78.30
2018-06-24T07:47:56.488Z,77.70
2018-06-24T07:50:25.132Z,78.30
2018-06-24T07:52:53.687Z,77.70
2018-06-24T07:55:22.329Z,76.50
2018-06-24T07:57:50.958Z,77.30
2018-06-24T08:00:19.578Z,76.70
2018-06-24T08:02:48.155Z,78.10
2018-06-24T08:05:17.880Z,75.90
2018-06-24T08:07:46.491Z,76.00
2018-06-24T08:10:15.040Z,74.90
2018-06-24T08:12:43.670Z,74.60
2018-06-24T08:15:12.350Z,73.90
2018-06-24T08:17:40.981Z,73.70
2018-06-24T08:20:09.628Z,74.80
2018-06-24T08:22:38.336Z,74.40
2018-06-24T08:25:07.004Z,73.50
2018-06-24T08:27:36.654Z,73.10
2018-06-24T08:30:05.590Z,71.60
2018-06-24T08:32:34.386Z,70.80
2018-06-24T08:35:03.430Z,70.30
2018-06-24T08:37:32.348Z,71.20
2018-06-24T08:40:01.062Z,69.90
2018-06-24T08:42:29.690Z,69.70
2018-06-24T08:44:58.355Z,69.40
2018-06-24T08:47:27.019Z,68.40
2018-06-24T08:49:55.628Z,67.50
2018-06-24T08:52:24.347Z,67.10
2018-06-24T08:54:53.027Z,67.70
2018-06-24T08:57:21.752Z,65.20
2018-06-24T08:59:51.487Z,63.30
2018-06-24T09:02:20.023Z,63.80
2018-06-24T09:04:48.663Z,64.50
2018-06-24T09:07:17.254Z,62.90
2018-06-24T09:09:45.859Z,61.80
2018-06-24T09:12:14.618Z,60.60
2018-06-24T09:14:43.301Z,61.20
2018-06-24T09:17:12.051Z,61.40
2018-06-24T09:19:40.802Z,60.80
2018-06-24T09:22:09.507Z,61.10
2018-06-24T09:24:38.156Z,59.70
2018-06-24T09:27:06.975Z,61.70
2018-06-24T09:29:35.598Z,62.50
2018-06-24T09:32:04.231Z,62.50
2018-06-24T09:34:32.944Z,60.20
2018-06-24T09:37:02.773Z,59.60
2018-06-24T09:39:31.303Z,59.20
2018-06-24T09:41:59.842Z,58.40
2018-06-24T09:44:28.532Z,57.20
2018-06-24T09:46:58.181Z,56.90
2018-06-24T09:49:26.725Z,54.90
2018-06-24T09:51:55.448Z,53.40
2018-06-24T09:54:24.003Z,50.30
2018-06-24T09:56:52.595Z,49.10
2018-06-24T09:59:21.228Z,47.40
2018-06-24T10:01:49.773Z,48.80
2018-06-24T10:04:18.379Z,49.50
2018-06-24T10:06:47.068Z,50.20
2018-06-24T10:09:15.766Z,50.00
2018-06-24T10:11:44.369Z,50.20
2018-06-24T10:14:12.930Z,48.70
2018-06-24T10:16:41.542Z,47.50
2018-06-24T10:19:10.277Z,46.90
2018-06-24T10:21:38.840Z,47.30
2018-06-24T10:24:07.511Z,47.10
2018-06-24T10:26:36.131Z,47.00
2018-06-24T10:29:04.968Z,47.80
2018-06-24T10:31:33.689Z,47.70
2018-06-24T10:34:02.276Z,48.40
2018-06-24T10:36:30.895Z,48.40
2018-06-24T10:38:59.451Z,48.00
2018-06-24T10:41:28.127Z,49.00
2018-06-24T10:46:25.042Z,49.30
2018-06-24T10:48:54.781Z,48.30
2018-06-24T10:51:24.450Z,48.30
2018-06-24T10:53:53.010Z,48.80
2018-06-24T10:58:49.830Z,47.10
2018-06-24T11:01:18.538Z,47.50
2018-06-24T11:03:47.206Z,47.20
2018-06-24T11:06:15.983Z,48.00
2018-06-24T11:08:44.564Z,48.10
2018-06-24T11:11:13.172Z,48.40
2018-06-24T11:13:41.828Z,48.10
2018-06-24T11:16:10.425Z,47.90
2018-06-24T11:18:39.046Z,47.40
2018-06-24T11:21:07.679Z,47.60
2018-06-24T11:23:36.200Z,47.30
2018-06-24T11:26:04.842Z,46.90
2018-06-24T11:28:33.420Z,46.70
2018-06-24T11:31:02.125Z,47.00
2018-06-24T11:33:30.634Z,47.50
2018-06-24T11:35:59.249Z,47.00
2018-06-24T11:38:28.573Z,47.00
2018-06-24T11:40:59.296Z,47.90
2018-06-24T11:43:28.109Z,48.40
2018-06-24T11:45:56.603Z,47.20
2018-06-24T11:48:25.214Z,48.10
2018-06-24T11:50:53.995Z,48.20
2018-06-24T11:55:50.841Z,49.20
2018-06-24T11:58:19.433Z,47.80
2018-06-24T12:00:47.963Z,48.60
2018-06-24T12:03:16.696Z,48.00
2018-06-24T12:05:45.352Z,47.10
2018-06-24T12:08:19.449Z,47.10
2018-06-24T12:10:48.146Z,47.60
2018-06-24T12:13:18.032Z,47.80
2018-06-24T12:15:46.660Z,46.90
2018-06-24T12:18:15.340Z,47.60
2018-06-24T12:20:43.879Z,46.90
2018-06-24T12:23:12.452Z,47.70
2018-06-24T12:25:41.100Z,48.50
2018-06-24T12:28:09.767Z,48.50
2018-06-24T12:30:38.352Z,48.40
2018-06-24T12:33:06.907Z,49.00
2018-06-24T12:35:35.553Z,49.60
2018-06-24T12:38:04.237Z,49.60
2018-06-24T12:40:33.823Z,48.00
2018-06-24T12:43:04.507Z,47.70
2018-06-24T12:45:33.742Z,47.60
2018-06-24T12:48:02.377Z,47.30
2018-06-24T12:50:30.982Z,48.80
2018-06-24T12:52:59.623Z,48.50
2018-06-24T12:55:28.242Z,48.60
2018-06-24T12:57:56.852Z,46.40
2018-06-24T13:00:26.313Z,47.00
2018-06-24T13:02:54.580Z,47.30
2018-06-24T13:05:23.250Z,46.80
2018-06-24T13:07:51.848Z,46.20
2018-06-24T13:10:20.460Z,45.70
2018-06-24T13:12:49.118Z,46.60
2018-06-24T13:15:17.733Z,46.40
2018-06-24T13:20:14.643Z,45.60
2018-06-24T13:22:43.238Z,44.80
2018-06-24T13:25:11.859Z,44.00
2018-06-24T13:27:40.469Z,44.90
2018-06-24T13:30:09.099Z,45.60
2018-06-24T13:32:37.778Z,46.30
2018-06-24T13:35:06.413Z,46.10
2018-06-24T13:37:35.109Z,46.60
2018-06-24T13:40:03.962Z,46.30
2018-06-24T13:42:32.598Z,47.00
2018-06-24T13:45:01.238Z,47.00
2018-06-24T13:47:29.965Z,46.90
2018-06-24T13:49:58.559Z,47.00
2018-06-24T13:52:27.191Z,46.80
2018-06-24T13:54:55.838Z,46.50
2018-06-24T13:57:24.436Z,46.80
2018-06-24T13:59:53.069Z,46.80
2018-06-24T14:02:21.740Z,47.30
2018-06-24T14:04:50.384Z,46.40
2018-06-24T14:07:19.036Z,45.50
2018-06-24T14:09:47.611Z,43.80
2018-06-24T14:12:16.197Z,43.70
2018-06-24T14:14:44.835Z,43.60
2018-06-24T14:17:13.390Z,44.80
2018-06-24T14:19:42.101Z,45.20
2018-06-24T14:22:10.727Z,45.30
2018-06-24T14:24:39.299Z,45.40
2018-06-24T14:29:36.263Z,46.20
2018-06-24T14:32:04.991Z,45.10
2018-06-24T14:34:33.627Z,44.50
2018-06-24T14:37:02.415Z,45.00
2018-06-24T14:41:59.321Z,46.00
2018-06-24T14:44:27.936Z,45.30
2018-06-24T14:46:56.586Z,45.30
2018-06-24T14:49:26.105Z,44.90
2018-06-24T14:51:54.614Z,45.80
2018-06-24T14:54:23.286Z,45.90
2018-06-24T14:56:51.941Z,45.90
2018-06-24T14:59:20.591Z,46.70
2018-06-24T15:01:49.209Z,46.70
2018-06-24T15:04:17.766Z,47.20
2018-06-24T15:06:46.461Z,47.60
2018-06-24T15:09:15.037Z,47.10
2018-06-24T15:11:43.615Z,47.00
2018-06-24T15:14:12.160Z,47.30
2018-06-24T15:16:40.728Z,47.30
2018-06-24T15:19:09.330Z,47.20
2018-06-24T15:21:37.873Z,47.10
2018-06-24T15:24:06.428Z,47.60
2018-06-24T15:26:35.094Z,47.80
2018-06-24T15:29:03.720Z,47.90
2018-06-24T15:31:32.288Z,47.70
2018-06-24T15:34:00.921Z,47.90
2018-06-24T15:36:29.499Z,48.20
2018-06-24T15:38:58.091Z,47.50
2018-06-24T15:41:26.752Z,47.60
2018-06-24T15:43:55.365Z,48.10
2018-06-24T15:46:24.072Z,47.40
2018-06-24T15:48:52.655Z,47.90
2018-06-24T15:51:21.286Z,48.10
2018-06-24T15:53:49.853Z,47.40
2018-06-24T15:56:18.423Z,47.50
2018-06-24T15:58:46.977Z,47.30
2018-06-24T16:01:15.586Z,47.90
2018-06-24T16:06:12.461Z,46.70
2018-06-24T16:08:41.013Z,47.10
2018-06-24T16:11:09.599Z,47.10
2018-06-24T16:13:38.144Z,47.50
2018-06-24T16:16:06.852Z,47.00
2018-06-24T16:18:35.493Z,47.30
2018-06-24T16:21:04.448Z,47.80
2018-06-24T16:23:32.679Z,47.20
2018-06-24T16:26:01.326Z,47.60
2018-06-24T16:28:29.899Z,47.90
2018-06-24T16:30:58.536Z,48.20
2018-06-24T16:33:27.061Z,48.50
2018-06-24T16:35:55.665Z,48.50
2018-06-24T16:38:24.202Z,48.90
2018-06-24T16:40:52.725Z,48.70
2018-06-24T16:43:21.308Z,48.90
2018-06-24T16:45:49.930Z,47.80
2018-06-24T16:48:18.543Z,48.10
2018-06-24T16:50:47.168Z,48.10
2018-06-24T16:53:15.739Z,48.50
2018-06-24T16:55:44.281Z,48.50
2018-06-24T16:58:12.898Z,49.00
2018-06-24T17:00:41.428Z,49.20
2018-06-24T17:03:10.097Z,48.60
2018-06-24T17:05:38.830Z,48.60
2018-06-24T17:08:08.016Z,48.40
2018-06-24T17:10:36.614Z,48.70
2018-06-24T17:13:05.238Z,48.50
2018-06-24T17:15:33.856Z,47.60
2018-06-24T17:18:02.415Z,47.50
2018-06-24T17:20:31.075Z,47.70
2018-06-24T17:22:59.662Z,48.20
2018-06-24T17:25:28.238Z,48.10
2018-06-24T17:27:56.889Z,49.10
2018-06-24T17:30:25.583Z,48.90
2018-06-24T17:32:54.138Z,49.20
2018-06-24T17:35:22.803Z,49.50
2018-06-24T17:37:51.442Z,49.90
2018-06-24T17:40:20.061Z,50.50
2018-06-24T17:42:48.696Z,50.80
2018-06-24T17:45:17.410Z,51.30
2018-06-24T17:47:46.000Z,51.70
2018-06-24T17:50:15.810Z,52.30
2018-06-24T17:52:44.395Z,52.60
2018-06-24T17:55:13.014Z,53.00
2018-06-24T17:57:41.639Z,53.10
2018-06-24T18:00:10.283Z,53.00
2018-06-24T18:02:38.789Z,52.80
2018-06-24T18:05:07.569Z,53.30
2018-06-24T18:07:36.237Z,53.50
2018-06-24T18:10:05.048Z,53.60
2018-06-24T18:12:33.634Z,53.80
2018-06-24T18:15:02.191Z,54.90
2018-06-24T18:17:30.805Z,55.30
2018-06-24T18:19:59.442Z,55.40
2018-06-24T18:22:28.078Z,55.60
2018-06-24T18:24:56.719Z,55.70
2018-06-24T18:27:25.366Z,55.80
2018-06-24T18:29:54.055Z,56.80
2018-06-24T18:32:22.821Z,57.20
2018-06-24T18:34:51.366Z,57.50
2018-06-24T18:37:19.989Z,57.50
2018-06-24T18:39:48.698Z,58.50
2018-06-24T18:42:17.343Z,58.70
2018-06-24T18:44:46.078Z,58.60
2018-06-24T18:47:14.681Z,60.70
2018-06-24T18:49:43.416Z,61.60
2018-06-24T18:52:12.123Z,63.50
2018-06-24T18:54:40.604Z,65.10
2018-06-24T18:57:09.372Z,63.70
2018-06-24T18:59:38.094Z,63.70
2018-06-24T19:02:06.704Z,62.10
2018-06-24T19:04:35.375Z,60.70
2018-06-24T19:09:33.378Z,59.10
2018-06-24T19:12:02.119Z,59.00
2018-06-24T19:14:30.743Z,59.20
2018-06-24T19:16:59.360Z,59.30
2018-06-24T19:19:28.062Z,58.50
2018-06-24T19:21:56.709Z,58.30
2018-06-24T19:24:25.352Z,58.10
2018-06-24T19:26:53.978Z,57.80
2018-06-24T19:29:22.547Z,57.70
2018-06-24T19:31:51.222Z,57.80
2018-06-24T19:36:48.085Z,57.80
2018-06-24T19:39:16.788Z,58.00
2018-06-24T19:41:45.311Z,57.90
2018-06-24T19:44:13.918Z,58.30
2018-06-24T19:46:42.661Z,58.50
2018-06-24T19:49:12.258Z,58.30
2018-06-24T19:51:41.039Z,58.50
2018-06-24T19:54:09.613Z,58.50
2018-06-24T19:56:38.253Z,58.70
2018-06-24T19:59:07.210Z,58.90
2018-06-24T20:01:36.010Z,59.10
2018-06-24T20:04:04.618Z,59.30
2018-06-24T20:06:33.315Z,59.50
2018-06-24T20:11:30.243Z,59.60
2018-06-24T20:13:59.077Z,59.80
2018-06-24T20:16:27.712Z,59.60
2018-06-24T20:18:56.296Z,59.70
2018-06-24T20:21:24.847Z,59.80
2018-06-24T20:23:53.441Z,60.40
2018-06-24T20:26:22.063Z,60.40
2018-06-24T20:28:50.720Z,60.70
2018-06-24T20:31:19.434Z,60.90
2018-06-24T20:33:48.068Z,61.40
2018-06-24T20:36:16.688Z,61.20
2018-06-24T20:38:45.354Z,61.40
2018-06-24T20:41:13.936Z,61.90
2018-06-24T20:43:42.478Z,62.80
2018-06-24T20:46:11.086Z,62.90
2018-06-24T20:48:39.695Z,63.40
2018-06-24T20:51:08.387Z,64.00
2018-06-24T20:53:37.115Z,64.60
2018-06-24T20:56:05.848Z,64.20
2018-06-24T20:58:34.551Z,64.30
2018-06-24T21:01:03.127Z,64.60
2018-06-24T21:03:31.758Z,65.10
2018-06-24T21:06:00.280Z,64.00
2018-06-24T21:08:28.897Z,64.60
2018-06-24T21:10:57.472Z,64.20
2018-06-24T21:13:26.066Z,65.60
2018-06-24T21:15:54.715Z,64.80
2018-06-24T21:18:23.235Z,64.20
2018-06-24T21:20:51.848Z,64.00
2018-06-24T21:23:20.434Z,64.50
2018-06-24T21:25:49.024Z,64.90
2018-06-24T21:28:17.631Z,64.70
2018-06-24T21:30:46.271Z,64.40
2018-06-24T21:33:14.979Z,64.90
2018-06-24T21:35:43.562Z,64.70
2018-06-24T21:38:12.209Z,64.80
2018-06-24T21:40:40.844Z,64.40
2018-06-24T21:43:09.537Z,64.60
2018-06-24T21:45:38.126Z,64.70
2018-06-24T21:48:07.390Z,65.00
2018-06-24T21:50:35.924Z,65.00
2018-06-24T21:53:04.586Z,65.60
2018-06-24T21:58:01.458Z,66.40
2018-06-24T22:00:30.252Z,66.50
2018-06-24T22:02:58.991Z,67.00
2018-06-24T22:05:27.510Z,67.30
2018-06-24T22:07:56.093Z,67.50
2018-06-24T22:10:24.733Z,67.70
2018-06-24T22:12:53.417Z,67.80
2018-06-24T22:15:21.982Z,68.00
2018-06-24T22:17:50.652Z,68.20
2018-06-24T22:20:19.295Z,68.10
2018-06-24T22:22:47.895Z,67.70
2018-06-24T22:25:16.502Z,67.50
2018-06-24T22:27:45.156Z,67.80
2018-06-24T22:30:13.741Z,67.70
2018-06-24T22:32:42.313Z,68.00
2018-06-24T22:35:10.924Z,67.70
2018-06-24T22:37:39.510Z,67.70
2018-06-24T22:40:08.136Z,67.90
2018-06-24T22:42:36.742Z,67.90
2018-06-24T22:45:05.345Z,68.70
2018-06-24T22:47:33.918Z,68.90
2018-06-24T22:50:02.543Z,67.90
2018-06-24T22:52:31.269Z,68.80
2018-06-24T22:54:59.890Z,68.40
2018-06-24T22:57:28.549Z,68.40
2018-06-24T23:00:05.608Z,67.90
2018-06-24T23:02:34.215Z,68.30
2018-06-24T23:05:02.790Z,68.00
2018-06-24T23:07:31.440Z,68.10
2018-06-24T23:10:00.068Z,68.50
2018-06-24T23:12:28.797Z,68.80
2018-06-24T23:14:57.534Z,67.90
2018-06-24T23:17:26.094Z,68.60
2018-06-24T23:19:55.229Z,69.70
2018-06-24T23:22:24.818Z,68.80
2018-06-24T23:24:53.473Z,68.70
2018-06-24T23:27:22.208Z,68.80
2018-06-24T23:29:51.131Z,69.00
2018-06-24T23:32:19.713Z,68.70
2018-06-24T23:37:16.750Z,68.90
2018-06-24T23:39:45.330Z,68.20
2018-06-24T23:42:13.933Z,68.60
2018-06-24T23:44:42.545Z,69.50
2018-06-24T23:47:11.094Z,70.10
2018-06-24T23:49:39.747Z,69.50
2018-06-24T23:52:08.389Z,69.20
2018-06-24T23:54:36.939Z,69.30
2018-06-24T23:57:05.964Z,69.30
2018-06-24T23:59:34.599Z,69.30
